createdAt,value
2022-12-25T00:03:35.828Z,25.20
2022-12-25T00:09:44.890Z,25.40
2022-12-25T00:15:52.582Z,25.50
2022-12-25T00:22:01.567Z,25.40
2022-12-25T00:28:13.187Z,25.00
2022-12-25T00:34:20.650Z,24.90
2022-12-25T00:40:29.641Z,25.20
2022-12-25T00:46:41.146Z,25.30
2022-12-25T00:52:51.249Z,25.00
2022-12-25T00:59:05.080Z,24.90
2022-12-25T01:05:15.608Z,25.10
2022-12-25T01:11:26.599Z,25.30
2022-12-25T01:17:36.319Z,25.40
2022-12-25T01:23:47.625Z,25.30
2022-12-25T01:29:57.492Z,24.90
2022-12-25T01:36:07.196Z,24.60
2022-12-25T01:42:21.044Z,24.40
2022-12-25T01:48:32.420Z,24.20
2022-12-25T01:54:44.117Z,24.00
2022-12-25T02:00:54.087Z,23.80
2022-12-25T02:07:06.216Z,23.80
2022-12-25T02:13:13.877Z,23.70
2022-12-25T02:19:26.720Z,23.60
2022-12-25T02:25:43.315Z,23.50
2022-12-25T02:31:55.533Z,23.40
2022-12-25T02:38:06.279Z,23.30
2022-12-25T02:44:35.087Z,23.20
2022-12-25T02:51:02.912Z,23.20
2022-12-25T02:57:30.548Z,23.10
2022-12-25T03:03:56.168Z,23.00
2022-12-25T03:10:25.068Z,22.90
2022-12-25T03:16:49.555Z,22.90
2022-12-25T03:23:17.798Z,22.80
2022-12-25T03:29:44.633Z,22.70
2022-12-25T03:36:04.420Z,22.70
2022-12-25T03:42:32.547Z,22.60
2022-12-25T03:49:02.922Z,22.60
2022-12-25T03:55:28.756Z,22.50
2022-12-25T04:01:58.309Z,22.40
2022-12-25T04:08:30.544Z,22.30
2022-12-25T04:14:55.715Z,22.30
2022-12-25T04:21:22.173Z,22.20
2022-12-25T04:27:48.551Z,22.10
2022-12-25T04:34:13.486Z,22.00
2022-12-25T04:40:23.048Z,22.20
2022-12-25T04:46:33.974Z,22.00
2022-12-25T04:52:41.676Z,21.80
2022-12-25T04:58:52.429Z,21.70
2022-12-25T05:05:03.216Z,21.80
2022-12-25T05:11:13.894Z,21.80
2022-12-25T05:17:21.342Z,21.70
2022-12-25T05:23:30.960Z,22.10
2022-12-25T05:29:40.353Z,22.20
2022-12-25T05:35:53.018Z,22.00
2022-12-25T05:42:06.331Z,21.70
2022-12-25T05:48:15.807Z,21.60
2022-12-25T05:54:27.392Z,21.90
2022-12-25T06:00:37.352Z,22.10
2022-12-25T06:06:44.736Z,21.90
2022-12-25T06:12:52.024Z,21.60
2022-12-25T06:19:02.866Z,21.80
2022-12-25T06:25:14.605Z,22.10
2022-12-25T06:31:25.879Z,21.90
2022-12-25T06:37:36.232Z,21.70
2022-12-25T06:43:52.275Z,21.80
2022-12-25T06:49:59.682Z,22.10
2022-12-25T06:56:15.954Z,21.90
2022-12-25T07:02:24.793Z,21.70
2022-12-25T07:08:36.815Z,21.90
2022-12-25T07:14:47.118Z,22.00
2022-12-25T07:20:56.553Z,21.70
2022-12-25T07:27:05.941Z,21.70
2022-12-25T07:33:14.197Z,22.00
2022-12-25T07:39:25.996Z,22.20
2022-12-25T07:45:34.308Z,21.90
2022-12-25T07:51:45.129Z,21.60
2022-12-25T07:57:55.535Z,21.80
2022-12-25T08:04:04.825Z,22.10
2022-12-25T08:10:13.606Z,22.10
2022-12-25T08:16:22.829Z,21.80
2022-12-25T08:22:32.170Z,21.70
2022-12-25T08:28:40.330Z,21.90
2022-12-25T08:34:51.067Z,22.20
2022-12-25T08:41:02.870Z,22.10
2022-12-25T08:47:11.992Z,21.80
2022-12-25T08:53:23.362Z,21.60
2022-12-25T08:59:32.483Z,21.60
2022-12-25T09:05:40.034Z,21.90
2022-12-25T09:11:48.155Z,22.10
2022-12-25T09:17:55.647Z,22.00
2022-12-25T09:24:04.819Z,21.70
2022-12-25T09:30:19.567Z,21.50
2022-12-25T09:36:27.334Z,21.50
2022-12-25T09:42:35.098Z,21.80
2022-12-25T09:48:46.481Z,22.10
2022-12-25T09:54:57.627Z,22.20
2022-12-25T10:01:10.482Z,21.90
2022-12-25T10:07:24.899Z,21.60
2022-12-25T10:13:57.861Z,21.70
2022-12-25T10:20:12.957Z,22.00
2022-12-25T10:26:23.130Z,22.30
2022-12-25T10:32:32.187Z,22.10
2022-12-25T10:38:40.399Z,21.80
2022-12-25T10:45:03.148Z,21.70
2022-12-25T10:51:14.955Z,22.00
2022-12-25T11:03:47.356Z,21.70
2022-12-25T11:10:02.706Z,21.80
2022-12-25T11:16:10.194Z,22.10
2022-12-25T11:22:21.001Z,21.90
2022-12-25T11:28:28.446Z,21.70
2022-12-25T11:34:39.541Z,21.90
2022-12-25T11:40:48.623Z,22.20
2022-12-25T11:46:59.541Z,22.00
2022-12-25T11:53:08.273Z,21.70
2022-12-25T11:59:22.307Z,21.80
2022-12-25T12:05:33.292Z,22.10
2022-12-25T12:11:41.347Z,22.20
2022-12-25T12:17:50.390Z,21.90
2022-12-25T12:24:02.249Z,21.80
2022-12-25T12:30:23.788Z,22.10
2022-12-25T12:36:36.552Z,22.30
2022-12-25T12:42:49.531Z,22.50
2022-12-25T12:49:00.807Z,22.70
2022-12-25T12:55:13.569Z,22.80
2022-12-25T13:01:34.051Z,23.00
2022-12-25T13:07:51.782Z,23.20
2022-12-25T13:14:03.802Z,23.40
2022-12-25T13:20:18.413Z,23.20
2022-12-25T13:26:28.416Z,23.00
2022-12-25T13:32:38.895Z,23.20
2022-12-25T13:38:53.069Z,23.40
2022-12-25T13:45:03.770Z,23.70
2022-12-25T13:51:17.743Z,23.70
2022-12-25T13:57:28.175Z,23.50
2022-12-25T14:03:37.968Z,23.60
2022-12-25T14:09:46.458Z,23.80
2022-12-25T14:15:56.350Z,23.60
2022-12-25T14:22:10.398Z,23.20
2022-12-25T14:28:24.305Z,23.30
2022-12-25T14:34:36.546Z,23.60
2022-12-25T14:40:46.294Z,23.90
2022-12-25T14:46:55.853Z,24.10
2022-12-25T14:53:05.894Z,24.30
2022-12-25T14:59:21.263Z,24.30
2022-12-25T15:05:37.770Z,24.60
2022-12-25T15:11:52.127Z,24.90
2022-12-25T15:18:04.745Z,25.10
2022-12-25T15:24:18.935Z,25.10
2022-12-25T15:30:29.393Z,25.00
2022-12-25T15:36:37.714Z,25.20
2022-12-25T15:42:46.951Z,25.40
2022-12-25T15:48:57.166Z,25.70
2022-12-25T15:55:08.255Z,25.70
2022-12-25T16:01:18.801Z,25.60
2022-12-25T16:07:28.321Z,25.60
2022-12-25T16:13:37.096Z,25.60
2022-12-25T16:19:50.357Z,25.70
2022-12-25T16:26:01.135Z,25.90
2022-12-25T16:32:13.546Z,26.00
2022-12-25T16:38:29.050Z,25.80
2022-12-25T16:44:39.257Z,25.70
2022-12-25T16:50:48.609Z,25.50
2022-12-25T16:56:59.720Z,25.40
2022-12-25T17:03:09.163Z,25.30
2022-12-25T17:09:18.727Z,25.40
2022-12-25T17:15:26.563Z,25.20
2022-12-25T17:21:37.165Z,25.10
2022-12-25T17:27:48.353Z,25.00
2022-12-25T17:33:57.847Z,25.00
2022-12-25T17:40:06.916Z,25.00
2022-12-25T17:46:18.653Z,24.90
2022-12-25T17:52:28.294Z,24.80
2022-12-25T17:58:40.979Z,25.00
2022-12-25T18:04:52.097Z,25.10
2022-12-25T18:11:02.470Z,25.00
2022-12-25T18:17:15.186Z,24.90
2022-12-25T18:23:25.781Z,24.80
2022-12-25T18:29:35.909Z,24.90
2022-12-25T18:35:45.363Z,25.10
2022-12-25T18:42:12.846Z,25.20
2022-12-25T18:48:25.678Z,25.00
2022-12-25T18:54:39.182Z,24.80
2022-12-25T19:00:47.159Z,24.70
2022-12-25T19:07:00.313Z,24.60
2022-12-25T19:13:12.446Z,24.80
2022-12-25T19:19:25.298Z,24.90
2022-12-25T19:25:35.369Z,24.70
2022-12-25T19:31:43.302Z,24.50
2022-12-25T19:37:55.303Z,24.60
2022-12-25T19:44:04.580Z,24.80
2022-12-25T19:50:14.950Z,24.90
2022-12-25T19:56:23.707Z,24.70
2022-12-25T20:02:32.057Z,24.40
2022-12-25T20:08:40.396Z,24.30
2022-12-25T20:14:55.172Z,24.50
2022-12-25T20:21:07.875Z,24.60
2022-12-25T20:27:21.252Z,24.50
2022-12-25T20:33:30.319Z,24.20
2022-12-25T20:39:38.775Z,23.90
2022-12-25T20:45:49.861Z,24.20
2022-12-25T20:52:04.544Z,24.40
2022-12-25T20:58:11.037Z,24.50
2022-12-25T21:04:19.440Z,24.40
2022-12-25T21:10:29.641Z,24.10
2022-12-25T21:16:39.964Z,23.90
2022-12-25T21:22:50.406Z,23.90
2022-12-25T21:28:58.751Z,24.20
2022-12-25T21:35:12.642Z,24.40
2022-12-25T21:41:22.525Z,24.30
2022-12-25T21:48:02.499Z,24.00
2022-12-25T21:53:41.075Z,23.80
2022-12-25T21:59:49.648Z,23.80
2022-12-25T22:06:21.671Z,24.00
2022-12-25T22:13:05.505Z,24.30
2022-12-25T22:25:31.175Z,23.90
2022-12-25T22:31:46.442Z,23.70
2022-12-25T22:37:50.330Z,23.90
2022-12-25T22:44:17.994Z,24.10
2022-12-25T22:50:12.518Z,24.20
2022-12-25T22:56:25.517Z,23.90
2022-12-25T23:02:35.834Z,23.70
2022-12-25T23:08:45.396Z,23.70
2022-12-25T23:14:58.195Z,23.90
2022-12-25T23:21:24.579Z,24.10
2022-12-25T23:27:35.017Z,24.00
2022-12-25T23:33:46.358Z,23.70
2022-12-25T23:39:54.531Z,23.50
2022-12-25T23:46:04.437Z,23.80
2022-12-25T23:52:15.768Z,24.00
2022-12-25T23:58:26.743Z,24.10
